Time,TemperatureF,DewpointF,PressureIn,WindDirection,WindDirectionDegrees,WindSpeedMPH,WindSpeedGustMPH,Humidity,HourlyPrecipIn,Conditions,Clouds,dailyrainin,SolarRadiationWatts/m^2,SoftwareType,DateUTC
2013-05-05 00:21:00,44.0,44.0,-100.00,South,186,23.0,30.0,99,0.00,,,0.00,1.000000,,2013-05-05 07:21:00,
2013-05-05 00:32:00,44.0,44.0,-100.00,South,186,23.0,30.0,99,0.00,,,0.00,1.000000,,2013-05-05 07:32:00,
2013-05-05 00:42:00,44.0,44.0,-100.00,South,186,23.0,30.0,99,0.00,,,0.00,1.000000,,2013-05-05 07:42:00,
2013-05-05 00:52:00,44.0,44.0,-100.00,South,186,23.0,30.0,99,0.00,,,0.00,1.000000,,2013-05-05 07:52:00,
2013-05-05 01:21:00,43.0,43.0,-100.00,South,189,23.0,30.0,99,0.00,,,0.00,1.000000,,2013-05-05 08:21:00,
2013-05-05 01:31:00,43.0,43.0,-100.00,South,189,23.0,30.0,99,0.00,,,0.00,1.000000,,2013-05-05 08:31:00,
2013-05-05 01:42:00,43.0,43.0,-100.00,South,189,23.0,30.0,99,0.00,,,0.00,1.000000,,2013-05-05 08:42:00,
2013-05-05 01:52:00,43.0,43.0,-100.00,South,189,23.0,30.0,99,0.00,,,0.00,1.000000,,2013-05-05 08:52:00,
2013-05-05 02:21:00,42.0,42.0,-100.00,South,189,25.0,32.0,99,0.00,,,0.00,1.000000,,2013-05-05 09:21:00,
2013-05-05 02:32:00,42.0,42.0,-100.00,South,189,25.0,32.0,99,0.00,,,0.00,1.000000,,2013-05-05 09:32:00,
2013-05-05 02:42:00,42.0,42.0,-100.00,South,189,25.0,32.0,99,0.00,,,0.00,1.000000,,2013-05-05 09:42:00,
2013-05-05 02:52:00,42.0,42.0,-100.00,South,189,25.0,32.0,99,0.00,,,0.00,1.000000,,2013-05-05 09:52:00,
2013-05-05 03:32:00,42.0,42.0,-100.00,South,188,23.0,36.0,99,0.00,,,0.00,1.000000,,2013-05-05 10:32:00,
2013-05-05 03:42:00,42.0,42.0,-100.00,South,188,23.0,36.0,99,0.00,,,0.00,1.000000,,2013-05-05 10:42:00,
2013-05-05 03:52:00,42.0,42.0,-100.00,South,188,23.0,36.0,99,0.00,,,0.00,1.000000,,2013-05-05 10:52:00,
2013-05-05 04:32:00,41.0,41.0,-100.00,South,188,23.0,34.0,99,0.00,,,0.00,1.000000,,2013-05-05 11:32:00,
2013-05-05 04:42:00,41.0,41.0,-100.00,South,188,23.0,34.0,99,0.00,,,0.00,1.000000,,2013-05-05 11:42:00,
2013-05-05 04:51:00,41.0,41.0,-100.00,South,188,23.0,34.0,99,0.00,,,0.00,1.000000,,2013-05-05 11:51:00,
2013-05-05 05:32:00,41.0,41.0,-100.00,South,189,24.0,36.0,99,0.00,,,0.00,1.000000,,2013-05-05 12:32:00,
2013-05-05 05:42:00,41.0,41.0,-100.00,South,189,24.0,36.0,99,0.00,,,0.00,1.000000,,2013-05-05 12:42:00,
2013-05-05 05:52:00,41.0,41.0,-100.00,South,189,24.0,36.0,99,0.00,,,0.00,1.000000,,2013-05-05 12:52:00,
2013-05-05 06:21:00,41.0,41.0,-100.00,South,185,25.0,32.0,99,0.00,,,0.00,1.000000,,2013-05-05 13:21:00,
2013-05-05 06:32:00,41.0,41.0,-100.00,South,185,25.0,32.0,99,0.00,,,0.00,1.000000,,2013-05-05 13:32:00,
2013-05-05 06:42:00,41.0,41.0,-100.00,South,185,25.0,32.0,99,0.00,,,0.00,1.000000,,2013-05-05 13:42:00,
2013-05-05 06:52:00,41.0,41.0,-100.00,South,185,25.0,32.0,99,0.00,,,0.00,1.000000,,2013-05-05 13:52:00,
2013-05-05 07:21:00,41.0,41.0,-100.00,South,183,31.0,41.0,99,0.00,,,0.00,9.000000,,2013-05-05 14:21:00,
2013-05-05 07:31:00,41.0,41.0,-100.00,South,183,31.0,41.0,99,0.00,,,0.00,9.000000,,2013-05-05 14:31:00,
2013-05-05 07:41:00,41.0,41.0,-100.00,South,183,31.0,41.0,99,0.00,,,0.00,9.000000,,2013-05-05 14:41:00,
2013-05-05 07:51:00,41.0,41.0,-100.00,South,183,31.0,41.0,99,0.00,,,0.00,9.000000,,2013-05-05 14:51:00,
2013-05-05 08:21:00,42.0,42.0,-100.00,South,183,31.0,45.0,99,0.01,,,0.01,34.000000,,2013-05-05 15:21:00,
2013-05-05 08:32:00,42.0,42.0,-100.00,South,183,31.0,45.0,99,0.01,,,0.01,34.000000,,2013-05-05 15:32:00,
2013-05-05 08:43:00,42.0,42.0,-100.00,South,183,31.0,45.0,99,0.01,,,0.01,34.000000,,2013-05-05 15:43:00,
2013-05-05 08:53:00,42.0,42.0,-100.00,South,183,31.0,45.0,99,0.01,,,0.01,34.000000,,2013-05-05 15:53:00,
2013-05-05 09:22:00,42.0,42.0,-100.00,South,183,30.0,47.0,99,0.00,,,0.01,51.000000,,2013-05-05 16:22:00,
2013-05-05 09:32:00,42.0,42.0,-100.00,South,183,30.0,47.0,99,0.00,,,0.01,51.000000,,2013-05-05 16:32:00,
2013-05-05 09:42:00,42.0,42.0,-100.00,South,183,30.0,47.0,99,0.00,,,0.01,51.000000,,2013-05-05 16:42:00,
2013-05-05 09:52:00,42.0,42.0,-100.00,South,183,30.0,47.0,99,0.00,,,0.01,51.000000,,2013-05-05 16:52:00,
2013-05-05 10:23:00,43.0,43.0,-100.00,South,182,33.0,45.0,99,0.00,,,0.01,55.000000,,2013-05-05 17:23:00,
2013-05-05 10:32:00,43.0,43.0,-100.00,South,182,33.0,45.0,99,0.00,,,0.01,55.000000,,2013-05-05 17:32:00,
2013-05-05 10:42:00,43.0,43.0,-100.00,South,182,33.0,45.0,99,0.00,,,0.01,55.000000,,2013-05-05 17:42:00,
2013-05-05 10:52:00,43.0,43.0,-100.00,South,182,33.0,45.0,99,0.00,,,0.01,55.000000,,2013-05-05 17:52:00,
2013-05-05 11:32:00,42.0,42.0,-100.00,South,181,32.0,43.0,99,0.00,,,0.01,91.000000,,2013-05-05 18:32:00,
2013-05-05 11:42:00,42.0,42.0,-100.00,South,181,32.0,43.0,99,0.00,,,0.01,91.000000,,2013-05-05 18:42:00,
2013-05-05 11:51:00,42.0,42.0,-100.00,South,181,32.0,43.0,99,0.00,,,0.01,91.000000,,2013-05-05 18:51:00,
2013-05-05 12:32:00,43.0,43.0,-100.00,South,181,28.0,46.0,99,0.01,,,0.02,127.000000,,2013-05-05 19:32:00,
2013-05-05 12:41:00,43.0,43.0,-100.00,South,181,28.0,46.0,99,0.01,,,0.02,127.000000,,2013-05-05 19:41:00,
2013-05-05 12:52:00,43.0,43.0,-100.00,South,181,28.0,46.0,99,0.01,,,0.02,127.000000,,2013-05-05 19:52:00,
2013-05-05 13:31:00,43.0,43.0,-100.00,South,182,27.0,39.0,99,0.00,,,0.02,115.000000,,2013-05-05 20:31:00,
2013-05-05 13:41:00,43.0,43.0,-100.00,South,182,27.0,39.0,99,0.00,,,0.02,115.000000,,2013-05-05 20:41:00,
2013-05-05 13:52:00,43.0,43.0,-100.00,South,182,27.0,39.0,99,0.00,,,0.02,115.000000,,2013-05-05 20:52:00,
2013-05-05 15:33:00,43.0,43.0,-100.00,South,179,20.0,30.0,100,-99.99,,,0.02,113.000000,,2013-05-05 22:33:00,
2013-05-05 15:42:00,43.0,43.0,-100.00,South,179,20.0,30.0,100,-99.99,,,0.02,113.000000,,2013-05-05 22:42:00,
2013-05-05 15:52:00,43.0,43.0,-100.00,South,179,20.0,30.0,100,-99.99,,,0.02,113.000000,,2013-05-05 22:52:00,
2013-05-05 16:21:00,43.0,43.0,-100.00,South,181,21.0,29.0,99,0.00,,,0.02,146.000000,,2013-05-05 23:21:00,
2013-05-05 16:32:00,43.0,43.0,-100.00,South,181,21.0,29.0,99,0.00,,,0.02,146.000000,,2013-05-05 23:32:00,
2013-05-05 16:42:00,43.0,43.0,-100.00,South,181,21.0,29.0,99,0.00,,,0.02,146.000000,,2013-05-05 23:42:00,
2013-05-05 16:52:00,43.0,43.0,-100.00,South,181,21.0,29.0,99,0.00,,,0.02,146.000000,,2013-05-05 23:52:00,
2013-05-05 17:21:00,43.0,43.0,-100.00,South,181,26.0,34.0,100,0.00,,,0.02,53.000000,,2013-05-06 00:21:00,
2013-05-05 17:31:00,43.0,43.0,-100.00,South,181,26.0,34.0,100,0.00,,,0.02,53.000000,,2013-05-06 00:31:00,
2013-05-05 17:41:00,43.0,43.0,-100.00,South,181,26.0,34.0,100,0.00,,,0.02,53.000000,,2013-05-06 00:41:00,
2013-05-05 17:51:00,43.0,43.0,-100.00,South,181,26.0,34.0,100,0.00,,,0.02,53.000000,,2013-05-06 00:51:00,
2013-05-05 18:21:00,42.0,42.0,-100.00,South,181,24.0,36.0,100,0.00,,,0.02,45.000000,,2013-05-06 01:21:00,
2013-05-05 18:31:00,42.0,42.0,-100.00,South,181,24.0,36.0,100,0.00,,,0.02,45.000000,,2013-05-06 01:31:00,
2013-05-05 18:41:00,42.0,42.0,-100.00,South,181,24.0,36.0,100,0.00,,,0.02,45.000000,,2013-05-06 01:41:00,
2013-05-05 18:52:00,42.0,42.0,-100.00,South,181,24.0,36.0,100,0.00,,,0.02,45.000000,,2013-05-06 01:52:00,
2013-05-05 19:21:00,42.0,42.0,-100.00,South,182,21.0,31.0,100,0.00,,,0.02,13.000000,,2013-05-06 02:21:00,
2013-05-05 19:32:00,42.0,42.0,-100.00,South,182,21.0,31.0,100,0.00,,,0.02,13.000000,,2013-05-06 02:32:00,
2013-05-05 19:42:00,42.0,42.0,-100.00,South,182,21.0,31.0,100,0.00,,,0.02,13.000000,,2013-05-06 02:42:00,
2013-05-05 19:51:00,42.0,42.0,-100.00,South,182,21.0,31.0,100,0.00,,,0.02,13.000000,,2013-05-06 02:51:00,
2013-05-05 20:33:00,42.0,42.0,-100.00,South,181,22.0,31.0,100,0.00,,,0.02,2.000000,,2013-05-06 03:33:00,
2013-05-05 20:42:00,42.0,42.0,-100.00,South,181,22.0,31.0,100,0.00,,,0.02,2.000000,,2013-05-06 03:42:00,
2013-05-05 20:52:00,42.0,42.0,-100.00,South,181,22.0,31.0,100,0.00,,,0.02,2.000000,,2013-05-06 03:52:00,
2013-05-05 21:23:00,42.0,42.0,-100.00,South,179,24.0,33.0,100,0.01,,,0.03,1.000000,,2013-05-06 04:23:00,
2013-05-05 21:32:00,42.0,42.0,-100.00,South,179,24.0,33.0,100,0.01,,,0.03,1.000000,,2013-05-06 04:32:00,
2013-05-05 21:42:00,42.0,42.0,-100.00,South,179,24.0,33.0,100,0.01,,,0.03,1.000000,,2013-05-06 04:42:00,
2013-05-05 21:52:00,42.0,42.0,-100.00,South,179,24.0,33.0,100,0.01,,,0.03,1.000000,,2013-05-06 04:52:00,
2013-05-05 22:22:00,42.0,42.0,-100.00,South,182,28.0,42.0,100,0.00,,,0.03,1.000000,,2013-05-06 05:22:00,
2013-05-05 22:32:00,42.0,42.0,-100.00,South,182,28.0,42.0,100,0.00,,,0.03,1.000000,,2013-05-06 05:32:00,
2013-05-05 22:42:00,42.0,42.0,-100.00,South,182,28.0,42.0,100,0.00,,,0.03,1.000000,,2013-05-06 05:42:00,
2013-05-05 22:52:00,42.0,42.0,-100.00,South,182,28.0,42.0,100,0.00,,,0.03,1.000000,,2013-05-06 05:52:00,
2013-05-05 23:21:00,42.0,42.0,-100.00,South,180,30.0,41.0,100,0.00,,,0.03,1.000000,,2013-05-06 06:21:00,
2013-05-05 23:31:00,42.0,42.0,-100.00,South,180,30.0,41.0,100,0.00,,,0.03,1.000000,,2013-05-06 06:31:00,
2013-05-05 23:41:00,42.0,42.0,-100.00,South,180,30.0,41.0,100,0.00,,,0.03,1.000000,,2013-05-06 06:41:00,
2013-05-05 23:51:00,42.0,42.0,-100.00,South,180,30.0,41.0,100,0.00,,,0.03,1.000000,,2013-05-06 06:51:00,